Time;durP1;ratioP1;P1;durP2;ratioP2;P2;SDS_P1;SDS_P2;PMS_P1;PMS_P2;Temp;Humidity;BMP_temperature;BMP_pressure;BME280_temperature;BME280_humidity;BME280_pressure;Samples;Min_cycle;Max_cycle;Signal;HPM_P1;HPM_P2
2023/08/09 00:02:00;;;;;;;0.10;0.10;;;;;;;16.11;60.98;100052.69;5392302;26;34954;-84
2023/08/09 00:04:28;;;;;;;0.15;0.15;;;;;;;15.83;61.78;100052.69;5372323;26;34773;-84
2023/08/09 00:06:55;;;;;;;0.30;0.30;;;;;;;15.95;61.67;100049.28;5410217;26;33668;-84
2023/08/09 00:09:23;;;;;;;0.25;0.25;;;;;;;15.98;61.60;100049.06;5411929;26;33379;-85
2023/08/09 00:11:50;;;;;;;0.10;0.10;;;;;;;15.95;61.57;100045.72;5354801;26;32438;-84
2023/08/09 00:14:18;;;;;;;0.00;0.00;;;;;;;15.97;61.60;100050.03;5372718;26;33445;-84
2023/08/09 00:16:46;;;;;;;1.90;0.60;;;;;;;16.03;61.17;100051.44;5373425;26;33552;-84
2023/08/09 00:19:13;;;;;;;0.00;0.00;;;;;;;16.06;61.03;100046.78;5391447;26;32095;-85
2023/08/09 00:21:41;;;;;;;3.47;0.35;;;;;;;15.89;61.54;100049.63;5372638;26;33541;-84
2023/08/09 00:24:10;;;;;;;0.15;0.15;;;;;;;15.78;61.95;100060.09;5372825;26;33270;-85
2023/08/09 00:26:37;;;;;;;0.00;0.00;;;;;;;15.76;62.08;100059.31;5391632;26;34460;-85
2023/08/09 00:29:05;;;;;;;0.05;0.00;;;;;;;15.70;62.19;100057.03;5391424;26;33517;-85
2023/08/09 00:31:33;;;;;;;0.50;0.50;;;;;;;15.68;62.35;100053.63;5391311;26;33551;-85
2023/08/09 00:34:01;;;;;;;0.47;0.47;;;;;;;15.75;61.94;100062.94;5372456;26;34088;-84
2023/08/09 00:36:29;;;;;;;0.03;0.03;;;;;;;15.64;62.24;100049.44;5372741;26;34519;-84
2023/08/09 00:38:56;;;;;;;0.22;0.22;;;;;;;15.68;61.93;100051.81;5391139;26;34159;-84
2023/08/09 00:41:24;;;;;;;0.00;0.00;;;;;;;15.69;62.21;100052.66;5353999;26;32976;-84
2023/08/09 00:43:53;;;;;;;0.20;0.20;;;;;;;15.67;62.28;100043.94;5373350;26;32892;-84
2023/08/09 00:46:22;;;;;;;0.00;0.00;;;;;;;15.66;62.38;100045.72;5372764;26;34026;-84
2023/08/09 00:48:49;;;;;;;0.00;0.00;;;;;;;15.74;62.06;100045.25;5372767;26;32356;-85
2023/08/09 00:51:19;;;;;;;0.20;0.20;;;;;;;15.70;61.98;100044.56;5391743;26;33867;-85
2023/08/09 00:53:47;;;;;;;0.00;0.00;;;;;;;15.59;62.26;100047.88;5391870;26;34026;-84
2023/08/09 00:56:15;;;;;;;0.10;0.10;;;;;;;15.50;62.23;100052.88;5372736;26;34530;-84
2023/08/09 00:58:43;;;;;;;0.00;0.00;;;;;;;15.45;62.44;100045.16;5391349;26;32013;-84
2023/08/09 01:01:11;;;;;;;0.05;0.03;;;;;;;15.62;61.54;100052.16;5353670;26;33152;-84
2023/08/09 01:03:38;;;;;;;0.28;0.20;;;;;;;15.65;61.42;100048.47;5372624;26;32957;-84
2023/08/09 01:06:15;;;;;;;0.00;0.00;;;;;;;15.47;62.19;100056.56;5371837;26;33163;-83
2023/08/09 01:08:49;;;;;;;0.30;0.30;;;;;;;15.58;62.30;100056.81;5353071;26;33985;-83
2023/08/09 01:11:29;;;;;;;0.22;0.22;;;;;;;15.65;61.89;100061.78;5371803;26;33894;-83
2023/08/09 01:13:57;;;;;;;0.10;0.10;;;;;;;15.62;62.40;100053.00;5390695;26;34414;-85
2023/08/09 01:16:27;;;;;;;0.35;0.30;;;;;;;15.61;62.02;100056.59;5373142;26;34128;-85
2023/08/09 01:18:55;;;;;;;0.10;0.10;;;;;;;15.68;61.67;100040.31;5372708;26;33390;-85
2023/08/09 01:21:26;;;;;;;0.45;0.20;;;;;;;15.66;61.88;100050.19;5372253;26;32106;-85
2023/08/09 01:23:54;;;;;;;0.30;0.20;;;;;;;15.55;61.90;100041.00;5371770;26;34366;-85
2023/08/09 01:26:24;;;;;;;0.10;0.10;;;;;;;15.55;61.78;100051.66;5372414;26;34534;-84
2023/08/09 01:28:52;;;;;;;0.15;0.15;;;;;;;15.42;62.25;100037.37;5372099;26;33246;-84
2023/08/09 01:31:27;;;;;;;0.40;0.40;;;;;;;15.45;62.16;100050.50;5354195;26;34484;-84
2023/08/09 01:33:55;;;;;;;0.08;0.08;;;;;;;15.28;63.04;100037.34;5372592;26;35703;-84
2023/08/09 01:36:28;;;;;;;0.17;0.17;;;;;;;15.30;62.93;100040.78;5372115;26;33251;-85
2023/08/09 01:39:06;;;;;;;0.17;0.17;;;;;;;15.34;62.84;100035.19;5372356;26;33230;-84
2023/08/09 01:41:35;;;;;;;0.50;0.50;;;;;;;15.42;62.59;100034.69;5373391;26;34097;-84
2023/08/09 01:44:04;;;;;;;0.10;0.10;;;;;;;15.48;61.94;100039.69;5373530;26;34075;-84
2023/08/09 01:46:32;;;;;;;1.55;0.43;;;;;;;15.40;62.46;100041.09;5373138;26;34044;-84
2023/08/09 01:49:14;;;;;;;0.00;0.00;;;;;;;15.31;62.68;100037.16;5391395;26;33420;-84
2023/08/09 01:51:42;;;;;;;0.20;0.20;;;;;;;15.26;62.81;100040.09;5373448;26;34033;-84
2023/08/09 01:54:11;;;;;;;0.45;0.45;;;;;;;15.26;62.89;100034.78;5372675;26;34575;-84
2023/08/09 01:56:41;;;;;;;0.20;0.13;;;;;;;15.30;62.99;100033.66;5412285;26;34160;-84
2023/08/09 01:59:09;;;;;;;0.65;0.45;;;;;;;15.19;63.05;100037.88;5372593;26;32719;-84
2023/08/09 02:01:37;;;;;;;0.00;0.00;;;;;;;15.07;63.73;100034.16;5391769;26;33274;-85
2023/08/09 02:04:05;;;;;;;0.10;0.10;;;;;;;15.01;63.84;100039.84;5372655;26;32402;-85
2023/08/09 02:06:32;;;;;;;0.20;0.20;;;;;;;15.20;63.29;100039.59;5391935;26;34146;-84
2023/08/09 02:09:01;;;;;;;0.00;0.00;;;;;;;15.08;63.44;100041.16;5373359;26;33144;-84
2023/08/09 02:11:29;;;;;;;0.00;0.00;;;;;;;15.01;63.38;100040.69;5373410;26;33323;-85
2023/08/09 02:13:56;;;;;;;0.10;0.08;;;;;;;15.01;63.61;100046.00;5373601;26;34503;-85
2023/08/09 02:16:24;;;;;;;0.50;0.50;;;;;;;15.00;63.69;100038.09;5354205;26;32670;-85
2023/08/09 02:18:52;;;;;;;0.22;0.22;;;;;;;15.10;63.41;100040.16;5373522;26;32909;-86
2023/08/09 02:21:19;;;;;;;0.10;0.10;;;;;;;15.10;63.28;100040.16;5372992;26;34076;-85
2023/08/09 02:23:47;;;;;;;0.00;0.00;;;;;;;15.22;63.01;100053.66;5373205;26;32392;-85
2023/08/09 02:26:18;;;;;;;0.03;0.03;;;;;;;15.08;63.04;100052.66;5391883;26;33471;-85
2023/08/09 02:28:48;;;;;;;0.00;0.00;;;;;;;15.10;62.65;100050.78;5373992;26;32970;-85
2023/08/09 02:31:18;;;;;;;0.00;0.00;;;;;;;15.14;62.24;100053.25;5373974;26;34635;-85
2023/08/09 02:33:46;;;;;;;0.93;0.03;;;;;;;15.17;62.46;100061.06;5392703;26;33929;-84
2023/08/09 02:36:13;;;;;;;4.37;0.20;;;;;;;15.14;62.68;100061.22;5373214;26;34003;-85
2023/08/09 02:38:41;;;;;;;0.00;0.00;;;;;;;15.14;62.85;100066.53;5373451;26;33258;-85
2023/08/09 02:41:09;;;;;;;0.20;0.17;;;;;;;15.15;62.58;100060.31;5373664;26;33192;-85
2023/08/09 02:43:37;;;;;;;0.30;0.20;;;;;;;15.05;63.00;100074.13;5392616;26;33943;-85
2023/08/09 02:46:05;;;;;;;0.30;0.30;;;;;;;15.15;62.42;100062.97;5354830;26;32366;-84
2023/08/09 02:48:32;;;;;;;0.20;0.20;;;;;;;15.11;62.63;100068.44;5373503;26;33035;-85
2023/08/09 02:51:01;;;;;;;0.00;0.00;;;;;;;14.86;63.67;100070.81;5372902;26;32848;-85
2023/08/09 02:53:36;;;;;;;0.00;0.00;;;;;;;15.00;63.59;100064.69;5373262;26;34709;-85
2023/08/09 02:56:03;;;;;;;0.37;0.22;;;;;;;15.02;63.56;100070.78;5391720;26;33711;-85
2023/08/09 02:58:31;;;;;;;0.00;0.00;;;;;;;14.99;63.33;100069.16;5354629;26;32878;-85
2023/08/09 03:00:59;;;;;;;0.00;0.00;;;;;;;15.01;63.22;100067.28;5392453;26;33942;-85
2023/08/09 03:03:26;;;;;;;0.20;0.20;;;;;;;14.96;63.23;100074.66;5354484;26;33750;-85
2023/08/09 03:05:54;;;;;;;0.00;0.00;;;;;;;14.88;63.58;100076.91;5392132;26;33872;-85
2023/08/09 03:08:22;;;;;;;1.85;0.30;;;;;;;14.74;64.03;100075.00;5391975;26;33148;-85
2023/08/09 03:10:49;;;;;;;0.10;0.10;;;;;;;14.92;63.55;100073.12;5392130;26;34372;-85
2023/08/09 03:13:17;;;;;;;0.35;0.35;;;;;;;14.95;63.57;100067.59;5350493;26;32686;-85
2023/08/09 03:15:45;;;;;;;0.57;0.40;;;;;;;15.02;63.26;100079.62;5350083;26;33277;-85
2023/08/09 03:18:13;;;;;;;0.10;0.10;;;;;;;14.89;63.62;100083.91;5332387;26;33324;-85
2023/08/09 03:20:41;;;;;;;0.40;0.40;;;;;;;14.82;63.88;100077.25;5351558;26;33594;-85
2023/08/09 03:23:09;;;;;;;0.00;0.00;;;;;;;14.89;63.70;100083.91;5351590;26;34660;-85
2023/08/09 03:25:38;;;;;;;0.20;0.20;;;;;;;14.82;63.75;100082.56;5331507;26;33906;-83
2023/08/09 03:28:06;;;;;;;0.08;0.08;;;;;;;14.82;63.73;100079.91;5350327;26;33420;-83
2023/08/09 03:30:33;;;;;;;0.00;0.00;;;;;;;14.84;63.52;100080.66;5349630;26;33349;-83
2023/08/09 03:33:01;;;;;;;0.22;0.20;;;;;;;14.88;63.59;100081.34;5368742;26;35170;-84
2023/08/09 03:35:30;;;;;;;0.00;0.00;;;;;;;14.78;63.75;100081.03;5332219;26;33431;-84
2023/08/09 03:37:59;;;;;;;0.03;0.03;;;;;;;14.89;63.29;100086.56;5350367;26;33298;-84
2023/08/09 03:40:26;;;;;;;0.00;0.00;;;;;;;14.94;63.11;100087.16;5350144;26;32132;-84
2023/08/09 03:42:54;;;;;;;0.75;0.20;;;;;;;14.97;62.76;100087.00;5389438;26;33723;-84
2023/08/09 03:45:22;;;;;;;0.37;0.30;;;;;;;14.93;62.94;100085.47;5332467;26;32236;-84
2023/08/09 03:47:52;;;;;;;0.45;0.40;;;;;;;14.90;63.25;100082.13;5313604;26;31742;-84
2023/08/09 03:50:21;;;;;;;0.43;0.43;;;;;;;14.96;63.33;100082.62;5351015;26;32357;-84
2023/08/09 03:52:49;;;;;;;1.27;1.05;;;;;;;14.76;63.96;100078.44;5331479;26;33539;-84
2023/08/09 03:55:16;;;;;;;0.00;0.00;;;;;;;14.87;63.75;100077.84;5331672;26;32690;-83
2023/08/09 03:57:44;;;;;;;0.52;0.25;;;;;;;14.81;63.88;100075.50;5369291;26;33352;-84
2023/08/09 04:00:17;;;;;;;0.32;0.30;;;;;;;14.95;63.42;100077.37;5331469;26;32766;-83
2023/08/09 04:02:45;;;;;;;0.75;0.75;;;;;;;15.39;61.88;100076.62;5351159;26;33832;-83
2023/08/09 04:05:14;;;;;;;0.00;0.00;;;;;;;15.25;62.33;100075.63;5367648;26;33679;-83
2023/08/09 04:07:43;;;;;;;0.28;0.28;;;;;;;15.21;63.10;100090.06;5350195;26;33468;-83
2023/08/09 04:10:12;;;;;;;0.10;0.10;;;;;;;15.26;63.50;100087.97;5349654;26;32856;-83
2023/08/09 04:12:39;;;;;;;0.10;0.10;;;;;;;15.31;63.51;100090.38;5333323;26;32484;-83
2023/08/09 04:15:08;;;;;;;0.20;0.20;;;;;;;15.52;63.01;100099.72;5367831;26;33639;-85
2023/08/09 04:17:35;;;;;;;0.65;0.62;;;;;;;15.53;63.66;100100.63;5369052;26;33243;-84
2023/08/09 04:20:09;;;;;;;0.45;0.45;;;;;;;15.54;64.06;100099.66;5369164;26;33772;-84
2023/08/09 04:22:36;;;;;;;0.20;0.20;;;;;;;15.59;63.91;100095.78;5351687;26;33623;-84
2023/08/09 04:25:05;;;;;;;0.00;0.00;;;;;;;15.72;63.88;100089.75;5368953;26;34572;-84
2023/08/09 04:27:33;;;;;;;0.00;0.00;;;;;;;15.93;63.51;100093.75;5331036;26;32583;-85
2023/08/09 04:30:03;;;;;;;0.75;0.70;;;;;;;16.07;63.49;100091.09;5368608;26;33905;-84
2023/08/09 04:32:30;;;;;;;0.35;0.35;;;;;;;16.43;62.50;100088.91;5349984;26;33821;-84
2023/08/09 04:34:58;;;;;;;0.47;0.47;;;;;;;16.42;62.43;100084.53;5349308;26;33418;-83
2023/08/09 04:37:27;;;;;;;0.10;0.00;;;;;;;16.42;62.84;100077.37;5388403;26;33358;-83
2023/08/09 04:39:55;;;;;;;0.20;0.10;;;;;;;16.59;62.69;100077.16;5368925;26;32897;-83
2023/08/09 04:42:22;;;;;;;1.15;0.90;;;;;;;16.68;62.53;100074.87;5349311;26;32634;-84
2023/08/09 04:44:50;;;;;;;0.03;0.03;;;;;;;16.89;61.99;100074.34;5349163;26;34700;-84
2023/08/09 04:47:18;;;;;;;0.32;0.32;;;;;;;17.02;61.52;100076.22;5368833;26;33357;-84
2023/08/09 04:49:45;;;;;;;0.30;0.30;;;;;;;17.04;61.22;100068.97;5367921;26;32548;-84
2023/08/09 04:52:13;;;;;;;0.32;0.20;;;;;;;16.92;61.91;100078.63;5365941;26;34235;-83
2023/08/09 04:54:41;;;;;;;1.60;1.00;;;;;;;17.06;61.76;100086.59;5365658;26;32786;-83
2023/08/09 04:57:08;;;;;;;0.40;0.40;;;;;;;17.13;61.14;100079.88;5347722;26;32914;-83
2023/08/09 04:59:36;;;;;;;1.85;0.62;;;;;;;17.03;61.81;100092.13;5347855;26;34924;-84
2023/08/09 05:02:05;;;;;;;0.00;0.00;;;;;;;16.99;62.33;100090.59;5349184;26;32882;-84
2023/08/09 05:04:33;;;;;;;0.57;0.57;;;;;;;17.02;62.43;100078.88;5331686;26;32804;-84
2023/08/09 05:07:02;;;;;;;0.10;0.10;;;;;;;17.04;62.61;100079.62;5331209;26;33794;-84
2023/08/09 05:09:33;;;;;;;0.45;0.45;;;;;;;17.04;62.70;100082.31;5349276;26;32625;-84
2023/08/09 05:12:01;;;;;;;0.20;0.20;;;;;;;17.14;62.37;100076.28;5368218;26;34798;-84
2023/08/09 05:14:29;;;;;;;0.62;0.62;;;;;;;17.21;62.38;100083.88;5366812;26;32402;-84
2023/08/09 05:16:56;;;;;;;0.22;0.22;;;;;;;17.47;61.73;100088.31;5390831;26;32500;-84
2023/08/09 05:19:24;;;;;;;1.15;0.93;;;;;;;17.58;62.10;100087.59;5373325;26;34072;-84
2023/08/09 05:21:52;;;;;;;0.70;0.70;;;;;;;17.83;61.35;100086.78;5392028;26;34009;-84
2023/08/09 05:24:19;;;;;;;0.77;0.77;;;;;;;17.92;61.32;100086.12;5391803;26;33969;-84
2023/08/09 05:26:47;;;;;;;2.12;0.85;;;;;;;18.13;60.26;100086.44;5353135;26;31874;-84
2023/08/09 05:29:15;;;;;;;0.37;0.37;;;;;;;18.13;60.35;100091.78;5390764;26;33960;-84
2023/08/09 05:31:43;;;;;;;0.10;0.10;;;;;;;18.03;61.47;100088.91;5372577;26;32827;-84
2023/08/09 05:34:10;;;;;;;0.10;0.10;;;;;;;17.90;62.29;100090.75;5391282;26;33818;-84
2023/08/09 05:36:38;;;;;;;0.40;0.40;;;;;;;18.05;62.12;100083.47;5372531;26;32438;-84
2023/08/09 05:39:07;;;;;;;0.20;0.20;;;;;;;18.05;62.26;100083.47;5352394;26;32839;-87
2023/08/09 05:41:36;;;;;;;0.85;0.32;;;;;;;18.34;61.51;100081.41;5351467;26;33979;-87
2023/08/09 05:44:04;;;;;;;0.37;0.32;;;;;;;18.64;60.96;100073.84;5369079;26;32327;-87
2023/08/09 05:46:31;;;;;;;2.17;0.65;;;;;;;18.87;60.05;100074.87;5388409;26;33214;-86
2023/08/09 05:48:59;;;;;;;0.75;0.47;;;;;;;18.95;59.62;100079.66;5332716;26;35431;-87
2023/08/09 05:51:29;;;;;;;0.40;0.40;;;;;;;18.96;59.21;100076.00;5350970;26;33513;-89
2023/08/09 05:53:57;;;;;;;0.55;0.55;;;;;;;18.94;59.05;100085.97;5352594;26;33234;-89
2023/08/09 05:56:25;;;;;;;0.20;0.10;;;;;;;18.98;59.22;100084.75;5370305;26;32703;-90
2023/08/09 05:58:53;;;;;;;1.10;1.00;;;;;;;19.17;58.40;100081.56;5351232;26;33018;-91
2023/08/09 06:01:22;;;;;;;0.20;0.20;;;;;;;19.09;58.04;100090.19;5350688;26;33474;-90
2023/08/09 06:03:53;;;;;;;0.25;0.25;;;;;;;19.37;57.28;100086.31;5349512;26;32603;-89
2023/08/09 06:06:31;;;;;;;0.10;0.10;;;;;;;19.41;57.38;100084.22;5368982;26;33043;-88
2023/08/09 06:08:59;;;;;;;0.50;0.35;;;;;;;19.54;57.55;100081.47;5369794;26;33503;-89
2023/08/09 06:11:26;;;;;;;0.05;0.05;;;;;;;19.74;57.52;100079.97;5352264;26;33954;-89
2023/08/09 06:13:54;;;;;;;1.37;0.52;;;;;;;19.61;57.08;100072.91;5351442;26;33347;-89
2023/08/09 06:16:47;;;;;;;0.40;0.40;;;;;;;19.86;56.68;100071.00;5370042;26;33353;-89
2023/08/09 06:27:17;;;;;;;0.95;0.80;;;;;;;20.67;55.30;100067.22;5408376;26;35002;-90
2023/08/09 06:29:47;;;;;;;0.20;0.20;;;;;;;20.63;52.58;100069.31;5350668;26;33889;-89
2023/08/09 06:32:15;;;;;;;0.00;0.00;;;;;;;20.86;51.67;100064.75;5351149;26;32952;-91
2023/08/09 06:34:43;;;;;;;0.10;0.10;;;;;;;20.69;50.90;100060.75;5350886;26;33649;-90
2023/08/09 06:37:50;;;;;;;0.43;0.43;;;;;;;21.04;50.57;100057.00;5324922;26;33162;-87
2023/08/09 06:40:26;;;;;;;0.10;0.10;;;;;;;21.11;51.93;100063.56;5323036;26;32877;-88
2023/08/09 06:42:54;;;;;;;0.00;0.00;;;;;;;21.30;50.06;100056.66;5321962;26;33323;-88
2023/08/09 06:45:22;;;;;;;2.20;0.30;;;;;;;21.67;49.54;100059.78;5325613;26;34902;-88
2023/08/09 06:47:51;;;;;;;0.00;0.00;;;;;;;21.85;48.21;100063.56;5344593;26;33808;-88
2023/08/09 06:50:20;;;;;;;1.75;0.90;;;;;;;22.03;48.33;100071.88;5344393;26;32203;-88
2023/08/09 06:52:48;;;;;;;0.20;0.20;;;;;;;21.84;48.02;100074.44;5344264;26;34727;-88
2023/08/09 06:55:16;;;;;;;0.40;0.40;;;;;;;21.84;48.11;100071.75;5325555;26;32718;-88
2023/08/09 06:57:44;;;;;;;0.55;0.20;;;;;;;22.22;47.78;100071.16;5325586;26;33190;-88
2023/08/09 07:00:21;;;;;;;0.10;0.10;;;;;;;22.27;46.56;100071.59;5325248;26;32232;-88
2023/08/09 07:02:50;;;;;;;0.45;0.32;;;;;;;22.34;47.04;100077.28;5345639;26;33821;-88
2023/08/09 07:05:21;;;;;;;0.28;0.28;;;;;;;22.18;47.57;100065.19;5343168;26;34452;-87
2023/08/09 07:07:54;;;;;;;0.30;0.20;;;;;;;22.49;47.33;100062.47;5321307;26;32753;-88
2023/08/09 07:10:24;;;;;;;0.17;0.17;;;;;;;22.44;46.58;100067.41;5354500;26;32090;-87
2023/08/09 07:12:53;;;;;;;0.37;0.25;;;;;;;22.21;46.09;100072.97;5353344;26;33690;-88
2023/08/09 07:15:20;;;;;;;0.47;0.15;;;;;;;22.45;46.26;100058.34;5350313;26;34165;-88
2023/08/09 07:17:48;;;;;;;13.73;0.82;;;;;;;22.42;46.51;100066.69;5367937;26;33136;-88
2023/08/09 07:20:43;;;;;;;2.67;0.88;;;;;;;22.19;48.24;100061.50;5374533;26;31788;-87
2023/08/09 07:23:11;;;;;;;0.90;0.30;;;;;;;22.68;47.00;100062.50;5371404;26;33118;-87
2023/08/09 07:25:39;;;;;;;0.25;0.20;;;;;;;22.92;47.42;100053.22;5390354;26;34331;-88
2023/08/09 07:28:07;;;;;;;0.30;0.30;;;;;;;23.22;46.74;100053.13;5371270;26;34770;-88
2023/08/09 07:30:35;;;;;;;1.17;0.62;;;;;;;23.09;46.50;100049.84;5390614;26;33308;-88
2023/08/09 07:33:06;;;;;;;0.10;0.10;;;;;;;23.58;46.02;100053.34;5371544;26;33361;-88
2023/08/09 07:35:33;;;;;;;0.28;0.20;;;;;;;23.15;45.76;100054.66;5390970;26;34756;-88
2023/08/09 07:38:02;;;;;;;0.13;0.13;;;;;;;23.61;45.38;100049.53;5390169;26;34441;-88
2023/08/09 07:40:31;;;;;;;0.00;0.00;;;;;;;23.63;44.75;100053.78;5371490;26;32308;-88
2023/08/09 07:43:00;;;;;;;0.30;0.20;;;;;;;23.54;43.87;100051.94;5372271;26;32990;-88
2023/08/09 07:45:29;;;;;;;0.55;0.55;;;;;;;23.82;43.86;100057.47;5390901;26;34800;-88
2023/08/09 07:47:57;;;;;;;0.10;0.10;;;;;;;23.96;44.22;100059.69;5390345;26;33847;-88
2023/08/09 07:50:25;;;;;;;0.47;0.43;;;;;;;24.10;44.00;100056.53;5372385;26;33195;-88
2023/08/09 07:52:53;;;;;;;0.20;0.20;;;;;;;24.00;43.49;100050.31;5353288;26;34488;-88
2023/08/09 07:55:22;;;;;;;0.00;0.00;;;;;;;24.17;43.67;100046.00;5372299;26;32407;-88
2023/08/09 07:57:50;;;;;;;0.15;0.15;;;;;;;24.13;43.29;100044.59;5353155;26;33171;-88
2023/08/09 08:00:18;;;;;;;0.20;0.20;;;;;;;24.47;43.35;100053.00;5372214;26;32673;-88
2023/08/09 08:02:47;;;;;;;0.10;0.10;;;;;;;23.82;43.58;100052.06;5371908;26;32606;-88
2023/08/09 08:05:15;;;;;;;0.62;0.47;;;;;;;24.14;43.37;100047.16;5371758;26;33041;-88
2023/08/09 08:07:43;;;;;;;0.15;0.15;;;;;;;24.13;44.29;100045.44;5371132;26;32321;-88
2023/08/09 08:10:14;;;;;;;0.85;0.40;;;;;;;24.20;43.93;100051.09;5390654;26;32931;-88
2023/08/09 08:12:45;;;;;;;0.20;0.17;;;;;;;24.50;43.90;100047.31;5372051;26;33727;-88
2023/08/09 08:15:13;;;;;;;0.20;0.20;;;;;;;23.94;45.14;100051.75;5371165;26;33725;-88
2023/08/09 08:17:41;;;;;;;1.27;0.47;;;;;;;24.09;44.76;100054.84;5390329;26;33492;-88
2023/08/09 08:20:10;;;;;;;1.02;0.70;;;;;;;24.17;45.14;100052.25;5371460;26;32448;-88
2023/08/09 08:22:38;;;;;;;0.40;0.40;;;;;;;24.00;45.27;100056.56;5371964;26;32748;-88
2023/08/09 08:25:06;;;;;;;1.02;0.52;;;;;;;24.47;44.38;100053.00;5371914;26;34186;-87
2023/08/09 08:27:35;;;;;;;0.40;0.40;;;;;;;24.02;44.96;100059.97;5371678;26;33503;-88
2023/08/09 08:30:08;;;;;;;0.00;0.00;;;;;;;23.65;45.77;100061.78;5391350;26;33895;-87
2023/08/09 08:32:36;;;;;;;1.02;0.93;;;;;;;24.36;46.52;100061.25;5390509;26;33863;-88
2023/08/09 08:35:10;;;;;;;0.40;0.40;;;;;;;24.23;44.96;100059.75;5372019;26;33584;-89
2023/08/09 08:37:38;;;;;;;0.10;0.10;;;;;;;24.48;44.71;100054.69;5372945;26;33463;-90
2023/08/09 08:40:09;;;;;;;0.75;0.50;;;;;;;24.32;45.11;100059.84;5353427;26;32067;-87
2023/08/09 08:42:59;;;;;;;0.20;0.20;;;;;;;24.70;44.19;100051.59;5354035;26;32794;-87
2023/08/09 08:45:26;;;;;;;0.00;0.00;;;;;;;24.50;44.72;100050.84;5391636;26;33854;-87
2023/08/09 08:47:54;;;;;;;0.20;0.20;;;;;;;24.54;44.21;100054.06;5353590;26;32944;-87
2023/08/09 08:50:25;;;;;;;0.40;0.20;;;;;;;24.82;44.21;100045.97;5353150;26;33299;-87
2023/08/09 08:52:52;;;;;;;0.22;0.22;;;;;;;24.86;44.12;100053.59;5353716;26;32626;-86
2023/08/09 08:55:21;;;;;;;0.17;0.17;;;;;;;24.64;44.93;100049.50;5353243;26;33268;-86
2023/08/09 08:57:49;;;;;;;0.32;0.10;;;;;;;25.31;44.52;100050.03;5371823;26;32874;-86
2023/08/09 09:00:17;;;;;;;0.95;0.30;;;;;;;25.07;44.75;100039.84;5371628;26;33146;-86
2023/08/09 09:02:48;;;;;;;0.00;0.00;;;;;;;25.09;44.04;100045.94;5372403;26;32930;-89
2023/08/09 09:05:17;;;;;;;0.17;0.17;;;;;;;25.32;44.07;100029.25;5372087;26;33614;-89
2023/08/09 09:07:46;;;;;;;0.40;0.37;;;;;;;25.43;43.19;100034.41;5390436;26;34510;-88
2023/08/09 09:10:14;;;;;;;0.22;0.22;;;;;;;25.03;43.70;100043.81;5349262;26;103659;-88
2023/08/09 09:12:43;;;;;;;0.20;0.20;;;;;;;25.12;43.08;100042.94;5371358;26;33925;-88
2023/08/09 09:15:11;;;;;;;0.10;0.10;;;;;;;25.41;43.60;100039.12;5371419;26;32889;-88
2023/08/09 09:17:40;;;;;;;0.73;0.40;;;;;;;25.40;44.50;100034.69;5371740;26;34680;-89
2023/08/09 09:20:20;;;;;;;0.95;0.30;;;;;;;25.19;43.82;100038.59;5370888;26;33243;-88
2023/08/09 09:22:53;;;;;;;0.10;0.10;;;;;;;25.18;43.45;100034.19;5390052;26;35484;-87
2023/08/09 09:25:22;;;;;;;0.00;0.00;;;;;;;25.48;43.20;100032.06;5371367;26;32366;-89
2023/08/09 09:27:54;;;;;;;0.37;0.30;;;;;;;25.03;43.41;100038.44;5372155;26;33343;-88
2023/08/09 09:30:24;;;;;;;0.20;0.20;;;;;;;24.95;43.00;100044.59;5371236;26;33364;-89
2023/08/09 09:32:57;;;;;;;0.10;0.10;;;;;;;25.17;42.33;100037.91;5371158;26;32361;-88
2023/08/09 09:35:27;;;;;;;0.00;0.00;;;;;;;25.28;42.77;100043.06;5390326;26;34632;-89
2023/08/09 09:37:58;;;;;;;0.10;0.10;;;;;;;25.52;43.45;100030.75;5370535;26;33323;-89
2023/08/09 09:40:32;;;;;;;0.28;0.28;;;;;;;25.52;42.92;100028.06;5390184;26;33251;-89
2023/08/09 09:43:04;;;;;;;0.15;0.10;;;;;;;25.66;43.07;100030.19;5353530;26;32471;-89
2023/08/09 09:45:32;;;;;;;13.70;0.57;;;;;;;25.04;41.51;100034.72;5352771;26;34501;-89
2023/08/09 09:48:02;;;;;;;1.30;0.52;;;;;;;25.34;40.34;100029.94;5370873;26;33300;-87
2023/08/09 09:50:31;;;;;;;0.00;0.00;;;;;;;25.19;39.36;100019.69;5370759;26;32366;-89
2023/08/09 09:53:00;;;;;;;0.47;0.20;;;;;;;25.44;39.28;100025.28;5371403;26;34035;-89
2023/08/09 09:55:28;;;;;;;0.22;0.20;;;;;;;25.86;38.82;100024.59;5370666;26;32855;-89
2023/08/09 09:57:58;;;;;;;0.00;0.00;;;;;;;25.36;37.81;100027.94;5371287;26;32599;-89
2023/08/09 10:00:27;;;;;;;0.73;0.45;;;;;;;25.59;38.18;100023.72;5371079;26;33196;-89
2023/08/09 10:02:59;;;;;;;0.10;0.10;;;;;;;25.49;37.83;100023.81;5353701;26;33986;-89
2023/08/09 10:05:40;;;;;;;1.35;0.20;;;;;;;25.52;38.64;100017.25;5372312;26;34643;-89
2023/08/09 10:08:11;;;;;;;0.10;0.10;;;;;;;25.69;37.60;100016.34;5371922;26;33498;-89
2023/08/09 10:10:43;;;;;;;0.00;0.00;;;;;;;25.74;37.62;100003.19;5372108;26;32835;-89
2023/08/09 10:13:21;;;;;;;0.20;0.20;;;;;;;25.99;36.48;100008.78;5372452;26;33343;-89
2023/08/09 10:15:53;;;;;;;0.08;0.08;;;;;;;25.46;37.27;100007.91;5371503;26;33565;-89
2023/08/09 10:18:33;;;;;;;0.00;0.00;;;;;;;25.62;37.71;100007.16;5353202;26;32427;-89
2023/08/09 10:21:01;;;;;;;0.10;0.10;;;;;;;25.91;37.51;100003.31;5371896;26;33425;-89
2023/08/09 10:23:29;;;;;;;0.28;0.28;;;;;;;26.01;36.54;100002.19;5391186;26;33638;-89
2023/08/09 10:25:58;;;;;;;0.00;0.00;;;;;;;26.09;37.13;100004.09;5353137;26;33338;-89
2023/08/09 10:28:43;;;;;;;0.10;0.10;;;;;;;25.69;38.18;100008.25;5372157;26;34410;-89
2023/08/09 10:31:14;;;;;;;0.10;0.10;;;;;;;26.00;37.97;100005.06;5410750;26;33220;-89
2023/08/09 10:34:08;;;;;;;0.75;0.20;;;;;;;26.12;37.70;100001.06;5409446;26;33452;-88
2023/08/09 10:36:36;;;;;;;0.00;0.00;;;;;;;25.70;36.21;99999.13;5389940;26;33437;-89
2023/08/09 10:39:14;;;;;;;0.05;0.03;;;;;;;25.95;36.22;100000.13;5371180;26;33882;-88
2023/08/09 10:42:05;;;;;;;0.00;0.00;;;;;;;26.42;37.30;100005.06;5353430;26;32702;-89
2023/08/09 10:44:37;;;;;;;0.30;0.30;;;;;;;25.72;36.40;99997.09;5390857;26;34724;-89
2023/08/09 10:47:26;;;;;;;0.03;0.03;;;;;;;25.51;36.91;100004.72;5371595;26;32570;-89
2023/08/09 10:49:53;;;;;;;4.57;0.88;;;;;;;25.95;36.92;100002.84;5371360;26;32865;-90
2023/08/09 10:52:29;;;;;;;0.10;0.10;;;;;;;25.79;37.25;100003.59;5371323;26;32211;-89
2023/08/09 10:55:20;;;;;;;0.00;0.00;;;;;;;25.71;36.48;99999.97;5371547;26;33129;-89
2023/08/09 10:57:49;;;;;;;0.15;0.08;;;;;;;25.87;36.68;99999.22;5361452;26;33545;-89
2023/08/09 11:00:20;;;;;;;0.20;0.20;;;;;;;26.05;35.77;100000.00;5371154;26;33192;-90
2023/08/09 11:02:48;;;;;;;0.10;0.10;;;;;;;25.85;35.81;99990.44;5390730;26;33351;-89
2023/08/09 11:05:17;;;;;;;0.03;0.03;;;;;;;25.81;36.18;100000.72;5390735;26;34653;-89
2023/08/09 11:07:55;;;;;;;0.00;0.00;;;;;;;25.70;36.01;100001.81;5352684;26;34907;-88
2023/08/09 11:10:32;;;;;;;0.00;0.00;;;;;;;25.68;36.27;99998.41;5390287;26;33534;-89
2023/08/09 11:13:11;;;;;;;0.00;0.00;;;;;;;25.72;37.64;100002.50;5353357;26;32740;-90
2023/08/09 11:15:50;;;;;;;0.00;0.00;;;;;;;25.63;35.97;99991.78;5371414;26;32142;-90
2023/08/09 11:18:18;;;;;;;0.00;0.00;;;;;;;25.88;35.91;99990.12;5372047;26;33363;-89
2023/08/09 11:20:46;;;;;;;0.00;0.00;;;;;;;26.02;35.62;99986.81;5352688;26;34609;-89
2023/08/09 11:23:14;;;;;;;0.20;0.20;;;;;;;25.78;35.46;99991.09;5353227;26;32434;-89
2023/08/09 11:25:42;;;;;;;0.00;0.00;;;;;;;25.65;35.64;99996.03;5371501;26;33896;-89
2023/08/09 11:28:14;;;;;;;0.05;0.05;;;;;;;25.56;35.78;99994.28;5372090;26;34507;-89
2023/08/09 11:30:42;;;;;;;0.00;0.00;;;;;;;25.13;36.13;99992.44;5372748;26;34524;-89
2023/08/09 11:33:11;;;;;;;0.30;0.22;;;;;;;25.43;36.58;99997.41;5353175;26;32570;-89
2023/08/09 11:35:43;;;;;;;0.03;0.03;;;;;;;25.50;35.84;99984.97;5371878;26;35302;-90
2023/08/09 11:38:13;;;;;;;0.10;0.10;;;;;;;25.40;35.89;99991.44;5372932;26;34026;-89
2023/08/09 11:40:51;;;;;;;0.28;0.20;;;;;;;25.43;36.71;99989.28;5371496;26;32848;-89
2023/08/09 11:43:21;;;;;;;4.85;0.32;;;;;;;25.61;35.57;99986.53;5372064;26;32460;-89
2023/08/09 11:45:53;;;;;;;0.00;0.00;;;;;;;25.61;35.52;99989.25;5372020;26;34328;-89
2023/08/09 11:48:24;;;;;;;0.43;0.30;;;;;;;25.51;35.18;99989.34;5352576;26;33272;-89